createdAt,value
2018-01-28T00:00:12.159Z,10.77
2018-01-28T00:02:42.388Z,11.90
2018-01-28T00:05:12.446Z,15.70
2018-01-28T00:07:43.040Z,12.23
2018-01-28T00:10:13.096Z,13.60
2018-01-28T00:12:43.282Z,12.90
2018-01-28T00:15:14.553Z,7.80
2018-01-28T00:17:44.743Z,15.13
2018-01-28T00:20:14.907Z,9.50
2018-01-28T00:22:45.756Z,13.40
2018-01-28T00:25:16.888Z,14.47
2018-01-28T00:27:47.380Z,20.33
2018-01-28T00:30:18.007Z,12.23
2018-01-28T00:32:48.224Z,11.87
2018-01-28T00:35:18.397Z,10.13
2018-01-28T00:37:48.601Z,10.90
2018-01-28T00:40:19.224Z,14.27
2018-01-28T00:42:49.215Z,12.30
2018-01-28T00:45:19.694Z,12.83
2018-01-28T00:47:49.895Z,14.07
2018-01-28T00:50:20.776Z,15.60
2018-01-28T00:52:51.094Z,11.90
2018-01-28T00:55:22.071Z,13.00
2018-01-28T00:57:53.497Z,11.67
2018-01-28T01:00:23.696Z,14.07
2018-01-28T01:02:54.549Z,13.43
2018-01-28T01:05:25.375Z,9.87
2018-01-28T01:07:56.539Z,10.50
2018-01-28T01:10:27.160Z,13.90
2018-01-28T01:12:57.689Z,12.33
2018-01-28T01:15:27.717Z,13.70
2018-01-28T01:17:57.718Z,11.13
2018-01-28T01:20:28.148Z,11.97
2018-01-28T01:22:58.784Z,9.60
2018-01-28T01:25:28.989Z,10.80
2018-01-28T01:27:59.756Z,13.10
2018-01-28T01:30:30.168Z,15.70
2018-01-28T01:33:01.157Z,11.50
2018-01-28T01:35:31.249Z,11.73
2018-01-28T01:38:02.040Z,12.07
2018-01-28T01:40:32.524Z,13.33
2018-01-28T01:43:02.977Z,12.13
2018-01-28T01:45:33.436Z,9.70
2018-01-28T01:48:03.822Z,11.70
2018-01-28T01:50:33.850Z,10.83
2018-01-28T01:53:05.022Z,13.37
2018-01-28T01:55:35.013Z,12.43
2018-01-28T01:58:05.811Z,12.37
2018-01-28T02:02:05.188Z,11.70
2018-01-28T02:04:35.232Z,8.90
2018-01-28T02:07:05.287Z,10.20
2018-01-28T02:09:35.309Z,14.47
2018-01-28T02:12:05.643Z,14.67
2018-01-28T02:14:36.184Z,11.30
2018-01-28T02:17:06.481Z,8.93
2018-01-28T02:19:36.540Z,9.33
2018-01-28T02:22:06.604Z,10.30
2018-01-28T02:24:36.650Z,9.83
2018-01-28T02:27:06.616Z,9.10
2018-01-28T02:29:37.108Z,13.57
2018-01-28T02:32:07.997Z,11.97
2018-01-28T02:34:38.358Z,12.97
2018-01-28T02:37:09.768Z,12.40
2018-01-28T02:39:39.787Z,11.13
2018-01-28T02:42:09.832Z,9.73
2018-01-28T02:44:39.903Z,10.70
2018-01-28T02:47:10.202Z,9.23
2018-01-28T02:49:40.380Z,7.63
2018-01-28T02:52:10.658Z,7.80
2018-01-28T02:54:40.919Z,10.00
2018-01-28T02:57:10.884Z,10.73
2018-01-28T02:59:41.096Z,11.93
2018-01-28T03:02:12.379Z,9.73
2018-01-28T03:04:43.271Z,9.20
2018-01-28T03:07:13.618Z,9.80
2018-01-28T03:09:44.354Z,11.83
2018-01-28T03:12:15.422Z,10.03
2018-01-28T03:14:45.852Z,9.47
2018-01-28T03:17:16.036Z,13.63
2018-01-28T03:19:46.357Z,9.90
2018-01-28T03:22:16.634Z,11.17
2018-01-28T03:24:51.398Z,10.87
2018-01-28T03:27:22.422Z,12.37
2018-01-28T03:30:03.001Z,15.03
2018-01-28T03:32:33.739Z,9.40
2018-01-28T03:35:04.171Z,13.30
2018-01-28T03:37:35.691Z,12.63
2018-01-28T03:40:05.672Z,11.37
2018-01-28T03:42:36.215Z,11.83
2018-01-28T03:45:06.726Z,12.27
2018-01-28T03:47:37.225Z,12.13
2018-01-28T03:50:07.379Z,14.73
2018-01-28T03:52:37.633Z,18.30
2018-01-28T03:55:07.588Z,15.20
2018-01-28T03:57:38.410Z,13.00
2018-01-28T04:00:09.479Z,13.50
2018-01-28T04:02:40.195Z,12.07
2018-01-28T04:05:10.350Z,14.60
2018-01-28T04:07:40.313Z,18.27
2018-01-28T04:10:11.040Z,21.57
2018-01-28T04:12:42.107Z,23.43
2018-01-28T04:15:12.090Z,15.90
2018-01-28T04:17:42.582Z,14.30
2018-01-28T04:20:12.583Z,17.33
2018-01-28T04:22:44.210Z,19.03
2018-01-28T04:25:15.245Z,15.87
2018-01-28T04:27:46.238Z,17.73
2018-01-28T04:30:16.947Z,16.20
2018-01-28T04:32:47.219Z,20.40
2018-01-28T04:35:17.655Z,23.30
2018-01-28T04:37:48.170Z,18.03
2018-01-28T04:40:18.213Z,19.10
2018-01-28T04:42:49.127Z,19.33
2018-01-28T04:45:19.146Z,16.30
2018-01-28T04:47:49.565Z,21.47
2018-01-28T04:50:19.636Z,19.77
2018-01-28T04:52:51.337Z,22.57
2018-01-28T04:55:22.549Z,26.70
2018-01-28T04:57:52.936Z,18.43
2018-01-28T05:00:23.129Z,16.57
2018-01-28T05:02:53.579Z,20.87
2018-01-28T05:05:23.952Z,18.73
2018-01-28T05:07:54.850Z,28.13
2018-01-28T05:10:25.375Z,23.43
2018-01-28T05:12:55.926Z,25.57
2018-01-28T05:15:26.233Z,21.83
2018-01-28T05:17:56.818Z,21.77
2018-01-28T05:20:27.089Z,25.90
2018-01-28T05:22:57.511Z,25.07
2018-01-28T05:25:27.879Z,23.30
2018-01-28T05:27:58.465Z,26.37
2018-01-28T05:30:28.707Z,23.03
2018-01-28T05:32:58.760Z,27.57
2018-01-28T05:35:29.033Z,26.87
2018-01-28T05:37:59.039Z,25.90
2018-01-28T05:40:29.235Z,24.97
2018-01-28T05:42:59.593Z,32.30
2018-01-28T05:45:29.856Z,23.77
2018-01-28T05:47:59.815Z,26.97
2018-01-28T05:50:30.710Z,24.00
2018-01-28T05:53:01.085Z,29.37
2018-01-28T05:55:31.377Z,25.30
2018-01-28T05:58:01.876Z,31.00
2018-01-28T06:00:32.080Z,27.10
2018-01-28T06:03:02.866Z,25.03
2018-01-28T06:05:32.905Z,30.67
2018-01-28T06:08:03.026Z,25.30
2018-01-28T06:10:33.047Z,24.33
2018-01-28T06:13:03.649Z,27.90
2018-01-28T06:15:35.554Z,34.50
2018-01-28T06:18:05.861Z,29.77
2018-01-28T06:20:36.391Z,27.60
2018-01-28T06:23:06.608Z,25.97
2018-01-28T06:25:36.928Z,28.20
2018-01-28T06:28:07.698Z,28.63
2018-01-28T06:30:37.902Z,22.40
2018-01-28T06:33:08.316Z,31.30
2018-01-28T06:35:39.215Z,28.50
2018-01-28T06:38:09.563Z,24.80
2018-01-28T06:40:40.691Z,29.73
2018-01-28T06:43:10.718Z,32.63
2018-01-28T06:45:41.772Z,32.33
2018-01-28T06:48:12.191Z,24.73
2018-01-28T06:50:42.826Z,32.50
2018-01-28T06:53:14.115Z,34.60
2018-01-28T06:55:44.358Z,28.93
2018-01-28T06:58:45.138Z,38.47
2018-01-28T07:01:15.795Z,30.17
2018-01-28T07:03:46.539Z,33.40
2018-01-28T07:06:16.535Z,32.63
2018-01-28T07:08:46.878Z,37.93
2018-01-28T07:11:17.146Z,33.27
2018-01-28T07:13:48.660Z,30.23
2018-01-28T07:16:19.692Z,24.37
2018-01-28T07:18:49.734Z,29.83
2018-01-28T07:21:20.715Z,36.57
2018-01-28T07:23:51.038Z,26.80
2018-01-28T07:26:21.503Z,30.43
2018-01-28T07:28:52.242Z,35.13
2018-01-28T07:31:23.033Z,28.57
2018-01-28T07:33:52.996Z,33.80
2018-01-28T07:36:23.232Z,33.07
2018-01-28T07:38:53.783Z,33.60
2018-01-28T07:41:24.403Z,36.07
2018-01-28T07:43:54.627Z,32.80
2018-01-28T07:46:25.667Z,26.70
2018-01-28T07:48:57.388Z,28.87
2018-01-28T07:51:27.738Z,35.37
2018-01-28T07:53:58.482Z,32.03
2018-01-28T07:56:30.542Z,34.77
2018-01-28T07:59:00.583Z,34.40
2018-01-28T08:01:31.741Z,33.60
2018-01-28T08:04:01.995Z,34.23
2018-01-28T08:06:32.567Z,29.57
2018-01-28T08:09:03.153Z,31.53
2018-01-28T08:11:33.363Z,31.17
2018-01-28T08:14:03.515Z,33.17
2018-01-28T08:16:41.114Z,42.40
2018-01-28T08:19:24.056Z,37.17
2018-01-28T08:21:55.619Z,35.43
2018-01-28T08:24:26.090Z,33.47
2018-01-28T08:26:56.344Z,30.63
2018-01-28T08:29:27.674Z,35.60
2018-01-28T08:31:57.879Z,31.43
2018-01-28T08:34:28.886Z,23.80
2018-01-28T08:36:59.003Z,27.90
2018-01-28T08:39:29.120Z,30.37
2018-01-28T08:41:59.672Z,28.87
2018-01-28T08:44:31.601Z,37.53
2018-01-28T08:47:02.370Z,36.00
2018-01-28T08:49:32.618Z,34.30
2018-01-28T08:52:02.968Z,33.93
2018-01-28T08:54:33.794Z,33.90
2018-01-28T08:57:03.860Z,26.83
2018-01-28T08:59:34.495Z,39.63
2018-01-28T09:02:04.673Z,34.87
2018-01-28T09:04:34.957Z,37.93
2018-01-28T09:07:05.081Z,30.63
2018-01-28T09:09:37.015Z,43.03
2018-01-28T09:12:07.014Z,32.53
2018-01-28T09:14:37.486Z,32.70
2018-01-28T09:17:07.627Z,27.60
2018-01-28T09:19:37.743Z,37.20
2018-01-28T09:22:10.290Z,31.27
2018-01-28T09:24:41.082Z,33.67
2018-01-28T09:27:11.148Z,28.43
2018-01-28T09:29:41.159Z,28.67
2018-01-28T09:32:11.717Z,25.13
2018-01-28T09:41:47.346Z,29.90
2018-01-28T09:44:17.489Z,30.27
2018-01-28T09:46:47.790Z,32.00
2018-01-28T09:49:18.206Z,28.40
2018-01-28T09:51:49.059Z,37.67
2018-01-28T09:54:19.388Z,40.70
2018-01-28T09:56:49.923Z,29.10
2018-01-28T09:59:20.202Z,30.43
2018-01-28T10:01:50.550Z,37.67
2018-01-28T10:04:21.205Z,31.77
2018-01-28T10:06:52.209Z,26.23
2018-01-28T10:09:22.481Z,29.50
2018-01-28T10:11:52.982Z,29.60
2018-01-28T10:14:23.007Z,31.40
2018-01-28T10:16:53.338Z,25.73
2018-01-28T10:19:23.900Z,37.60
2018-01-28T10:21:53.940Z,25.20
2018-01-28T10:24:24.481Z,28.50
2018-01-28T10:26:54.778Z,26.27
2018-01-28T10:36:37.262Z,29.93
2018-01-28T10:39:07.530Z,24.63
2018-01-28T10:41:39.203Z,31.67
2018-01-28T10:44:09.342Z,35.73
2018-01-28T10:46:40.446Z,28.77
2018-01-28T10:49:10.461Z,35.13
2018-01-28T10:51:40.470Z,31.17
2018-01-28T10:54:10.482Z,39.43
2018-01-28T11:03:40.575Z,29.33
2018-01-28T11:06:11.611Z,29.00
2018-01-28T11:08:41.976Z,27.93
2018-01-28T11:11:12.763Z,30.47
2018-01-28T11:13:44.407Z,33.13
2018-01-28T11:16:15.303Z,25.17
2018-01-28T11:18:45.353Z,29.67
2018-01-28T11:21:15.789Z,29.73
2018-01-28T11:23:46.119Z,29.50
2018-01-28T11:26:16.134Z,25.57
2018-01-28T11:28:46.817Z,29.53
2018-01-28T11:31:17.610Z,25.30
2018-01-28T11:33:47.807Z,26.60
2018-01-28T11:36:20.594Z,26.40
2018-01-28T11:38:54.124Z,25.63
2018-01-28T11:41:24.594Z,28.37
2018-01-28T11:43:54.702Z,26.50
2018-01-28T11:46:24.816Z,21.83
2018-01-28T11:48:54.854Z,22.10
2018-01-28T11:51:25.287Z,24.87
2018-01-28T11:53:55.342Z,24.20
2018-01-28T11:56:25.335Z,26.70
2018-01-28T11:58:55.398Z,21.63
2018-01-28T12:01:25.698Z,29.43
2018-01-28T12:03:55.757Z,27.50
2018-01-28T12:06:25.844Z,23.63
2018-01-28T12:08:57.329Z,27.10
2018-01-28T12:11:28.109Z,25.17
2018-01-28T12:13:58.243Z,24.00
2018-01-28T12:16:28.266Z,21.27
2018-01-28T12:18:58.598Z,28.83
2018-01-28T12:21:28.783Z,20.07
2018-01-28T12:23:58.779Z,18.77
2018-01-28T12:26:28.755Z,27.57
2018-01-28T12:28:59.813Z,16.23
2018-01-28T12:31:30.927Z,18.50
2018-01-28T12:34:01.090Z,15.13
2018-01-28T12:36:31.518Z,18.13
2018-01-28T12:39:01.767Z,23.37
2018-01-28T12:41:32.660Z,15.27
2018-01-28T12:44:03.798Z,13.33
2018-01-28T12:46:34.596Z,18.07
2018-01-28T12:49:05.208Z,13.93
2018-01-28T12:51:36.019Z,15.80
2018-01-28T12:54:06.023Z,18.00
2018-01-28T12:56:36.068Z,15.30
2018-01-28T12:59:06.369Z,12.87
2018-01-28T13:01:36.672Z,19.60
2018-01-28T13:04:07.473Z,15.30
2018-01-28T13:06:38.380Z,17.97
2018-01-28T13:09:08.547Z,15.47
2018-01-28T13:11:38.615Z,14.00
2018-01-28T13:14:08.688Z,15.27
2018-01-28T13:16:38.730Z,20.77
2018-01-28T13:19:09.051Z,26.97
2018-01-28T13:21:40.715Z,23.43
2018-01-28T13:24:10.780Z,19.47
2018-01-28T13:26:40.911Z,16.60
2018-01-28T13:29:11.058Z,12.10
2018-01-28T13:31:41.869Z,17.43
2018-01-28T13:34:11.907Z,18.30
2018-01-28T13:36:43.061Z,21.83
2018-01-28T13:39:13.982Z,16.37
2018-01-28T13:41:44.058Z,21.83
2018-01-28T13:44:14.356Z,12.63
2018-01-28T13:46:45.415Z,16.93
2018-01-28T13:49:15.751Z,16.80
2018-01-28T13:51:45.776Z,19.10
2018-01-28T13:54:16.163Z,22.13
2018-01-28T13:56:46.628Z,14.00
2018-01-28T13:59:17.015Z,15.03
2018-01-28T14:01:47.370Z,10.50
2018-01-28T14:04:17.956Z,15.70
2018-01-28T14:06:49.075Z,18.83
2018-01-28T14:09:19.179Z,16.97
2018-01-28T14:11:49.242Z,23.23
2018-01-28T14:14:19.608Z,14.70
2018-01-28T14:16:49.600Z,18.03
2018-01-28T14:19:19.757Z,14.23
2018-01-28T14:21:49.827Z,8.63
2018-01-28T14:24:20.146Z,22.60
2018-01-28T14:26:50.607Z,11.17
2018-01-28T14:29:20.746Z,8.80
2018-01-28T14:31:52.689Z,17.63
2018-01-28T14:34:23.864Z,17.47
2018-01-28T14:36:55.740Z,10.40
2018-01-28T14:39:26.296Z,15.87
2018-01-28T14:41:56.787Z,14.13
2018-01-28T14:44:26.887Z,14.87
2018-01-28T14:46:56.916Z,13.73
2018-01-28T14:49:27.196Z,17.43
2018-01-28T14:51:57.243Z,14.90
2018-01-28T14:54:27.408Z,16.20
2018-01-28T14:56:57.855Z,19.57
2018-01-28T14:59:28.002Z,18.90
2018-01-28T15:01:58.176Z,16.20
2018-01-28T15:04:28.599Z,20.87
2018-01-28T15:06:58.924Z,12.20
2018-01-28T15:09:29.023Z,11.63
2018-01-28T15:11:59.139Z,12.70
2018-01-28T15:14:29.696Z,19.47
2018-01-28T15:16:59.769Z,13.93
2018-01-28T15:19:32.016Z,11.00
2018-01-28T15:22:04.456Z,15.03
2018-01-28T15:24:37.731Z,11.83
2018-01-28T15:27:08.639Z,18.07
2018-01-28T15:32:14.311Z,17.37
2018-01-28T15:34:44.374Z,14.97
2018-01-28T15:37:14.604Z,16.27
2018-01-28T15:39:44.815Z,17.60
2018-01-28T15:42:14.845Z,18.90
2018-01-28T15:44:44.854Z,20.13
2018-01-28T15:47:16.551Z,12.63
2018-01-28T15:49:47.486Z,25.50
2018-01-28T15:55:37.036Z,18.13
2018-01-28T15:58:11.053Z,18.63
2018-01-28T16:00:45.430Z,20.77
2018-01-28T16:03:16.003Z,13.17
2018-01-28T16:05:46.489Z,17.60
2018-01-28T16:08:17.318Z,30.13
2018-01-28T16:10:48.638Z,15.20
2018-01-28T16:13:19.008Z,15.87
2018-01-28T16:15:49.932Z,13.40
2018-01-28T16:18:20.777Z,16.00
2018-01-28T16:20:52.247Z,20.70
2018-01-28T16:23:24.682Z,19.13
2018-01-28T16:25:54.915Z,14.57
2018-01-28T16:28:25.930Z,19.57
2018-01-28T16:30:56.085Z,19.47
2018-01-28T16:33:28.066Z,20.80
2018-01-28T16:35:58.168Z,17.27
2018-01-28T16:38:29.562Z,17.33
2018-01-28T16:40:59.603Z,27.77
2018-01-28T16:43:29.709Z,19.70
2018-01-28T16:45:59.786Z,22.67
2018-01-28T16:48:30.494Z,23.20
2018-01-28T16:51:02.189Z,18.97
2018-01-28T16:53:32.994Z,27.30
2018-01-28T16:56:03.951Z,23.50
2018-01-28T16:58:34.912Z,29.00
2018-01-28T17:01:07.120Z,23.00
2018-01-28T17:03:38.813Z,24.03
2018-01-28T17:06:10.101Z,17.83
2018-01-28T17:08:41.550Z,20.37
2018-01-28T17:11:16.056Z,27.83
2018-01-28T17:13:48.013Z,28.50
2018-01-28T17:16:19.529Z,26.33
2018-01-28T17:18:49.921Z,31.63
2018-01-28T17:21:21.318Z,33.00
2018-01-28T17:23:51.534Z,34.47
2018-01-28T17:26:21.880Z,26.10
2018-01-28T17:28:52.663Z,29.13
2018-01-28T17:31:23.360Z,29.60
2018-01-28T17:33:53.516Z,26.10
2018-01-28T17:36:23.545Z,31.07
2018-01-28T17:38:53.598Z,33.13
2018-01-28T17:41:23.836Z,36.20
2018-01-28T17:43:54.078Z,32.90
2018-01-28T17:46:25.075Z,24.40
2018-01-28T17:48:55.236Z,30.60
2018-01-28T17:51:25.742Z,41.40
2018-01-28T17:53:56.442Z,35.40
2018-01-28T17:56:26.545Z,32.90
2018-01-28T17:58:56.699Z,32.00
2018-01-28T18:01:26.854Z,33.53
2018-01-28T18:03:57.132Z,27.93
2018-01-28T18:06:29.542Z,37.03
2018-01-28T18:09:00.216Z,34.57
2018-01-28T18:11:31.795Z,34.83
2018-01-28T18:14:03.643Z,40.27
2018-01-28T18:16:35.619Z,38.37
2018-01-28T18:19:08.066Z,39.50
2018-01-28T18:21:40.241Z,38.17
2018-01-28T18:24:11.235Z,41.00
2018-01-28T18:26:41.937Z,39.83
2018-01-28T18:29:12.121Z,34.37
2018-01-28T18:31:43.144Z,37.63
2018-01-28T18:34:13.586Z,39.67
2018-01-28T18:36:44.630Z,35.10
2018-01-28T18:39:15.525Z,47.77
2018-01-28T18:41:47.868Z,34.93
2018-01-28T18:44:17.983Z,29.47
2018-01-28T18:46:49.084Z,30.73
2018-01-28T18:49:19.899Z,32.90
2018-01-28T18:51:50.987Z,30.83
2018-01-28T18:54:23.088Z,35.37
2018-01-28T18:56:54.081Z,32.97
2018-01-28T18:59:24.431Z,30.47
2018-01-28T19:01:54.874Z,37.87
2018-01-28T19:04:25.081Z,38.40
2018-01-28T19:06:58.473Z,37.87
2018-01-28T19:09:28.716Z,37.77
2018-01-28T19:11:59.227Z,38.73
2018-01-28T19:14:29.328Z,29.63
2018-01-28T19:17:01.055Z,31.33
2018-01-28T19:19:32.103Z,35.37
2018-01-28T19:22:02.568Z,35.93
2018-01-28T19:24:32.999Z,33.77
2018-01-28T19:27:04.586Z,42.83
2018-01-28T19:29:35.387Z,38.23
2018-01-28T19:32:06.676Z,31.07
2018-01-28T19:34:36.763Z,28.67
2018-01-28T19:37:07.445Z,29.63
2018-01-28T19:39:37.809Z,31.53
2018-01-28T19:42:08.691Z,31.83
2018-01-28T19:44:39.089Z,32.73
2018-01-28T19:47:09.508Z,32.20
2018-01-28T19:49:39.623Z,29.33
2018-01-28T19:52:10.916Z,33.73
2018-01-28T19:54:41.914Z,30.27
2018-01-28T19:57:13.259Z,36.27
2018-01-28T19:59:43.656Z,32.63
2018-01-28T20:02:14.982Z,29.20
2018-01-28T20:04:45.091Z,31.20
2018-01-28T20:07:15.213Z,31.90
2018-01-28T20:09:45.644Z,26.90
2018-01-28T20:12:18.113Z,31.43
2018-01-28T20:14:48.248Z,30.40
2018-01-28T20:17:19.367Z,30.73
2018-01-28T20:19:50.455Z,22.67
2018-01-28T20:22:20.940Z,33.03
2018-01-28T20:24:51.069Z,27.37
2018-01-28T20:27:21.634Z,26.70
2018-01-28T20:29:52.333Z,24.93
2018-01-28T20:32:23.643Z,28.93
2018-01-28T20:34:54.446Z,32.80
2018-01-28T20:37:25.248Z,31.17
2018-01-28T20:39:58.130Z,21.43
2018-01-28T20:42:28.674Z,30.77
2018-01-28T20:44:59.213Z,35.83
2018-01-28T20:47:30.657Z,32.20
2018-01-28T20:50:02.892Z,26.57
2018-01-28T20:52:33.947Z,31.03
2018-01-28T20:55:04.992Z,33.43
2018-01-28T20:57:35.656Z,33.83
2018-01-28T21:00:06.194Z,31.13
2018-01-28T21:02:36.413Z,32.17
2018-01-28T21:05:10.486Z,34.80
2018-01-28T21:07:41.974Z,25.90
2018-01-28T21:10:12.949Z,24.67
2018-01-28T21:14:12.752Z,24.67
2018-01-28T21:16:43.329Z,22.37
2018-01-28T21:19:13.586Z,20.63
2018-01-28T21:21:43.938Z,17.20
2018-01-28T21:24:14.093Z,19.23
2018-01-28T21:26:45.351Z,20.13
2018-01-28T21:29:15.983Z,17.27
2018-01-28T21:31:46.992Z,17.77
2018-01-28T21:34:17.391Z,19.17
2018-01-28T21:36:47.618Z,19.27
2018-01-28T21:39:18.089Z,18.00
2018-01-28T21:41:53.755Z,20.90
2018-01-28T21:44:23.867Z,22.30
2018-01-28T21:46:55.536Z,24.17
2018-01-28T21:49:26.027Z,21.13
2018-01-28T21:51:57.599Z,19.93
2018-01-28T21:54:28.434Z,25.93
2018-01-28T21:56:59.776Z,23.13
2018-01-28T21:59:31.052Z,27.07
2018-01-28T22:02:01.544Z,26.40
2018-01-28T22:04:32.319Z,25.90
2018-01-28T22:07:02.845Z,31.73
2018-01-28T22:09:34.315Z,26.23
2018-01-28T22:12:07.284Z,29.53
2018-01-28T22:14:37.743Z,29.20
2018-01-28T22:17:08.829Z,28.03
2018-01-28T22:19:39.812Z,29.77
2018-01-28T22:22:10.733Z,28.20
2018-01-28T22:24:54.136Z,28.33
2018-01-28T22:27:34.879Z,31.40
2018-01-28T22:30:09.801Z,25.63
2018-01-28T22:32:45.361Z,29.00
2018-01-28T22:35:20.365Z,31.10
2018-01-28T22:37:56.016Z,26.43
2018-01-28T22:40:33.420Z,29.80
2018-01-28T22:43:09.513Z,29.80
2018-01-28T22:45:44.296Z,28.37
2018-01-28T22:48:21.136Z,34.87
2018-01-28T22:50:55.088Z,31.20
2018-01-28T22:53:28.541Z,31.70
2018-01-28T22:56:01.590Z,47.10
2018-01-28T22:58:32.534Z,35.07
2018-01-28T23:01:06.211Z,31.73
2018-01-28T23:03:38.457Z,34.77
2018-01-28T23:06:15.256Z,39.10
2018-01-28T23:08:47.535Z,36.97
2018-01-28T23:11:19.846Z,33.30
2018-01-28T23:13:50.793Z,36.37
2018-01-28T23:16:24.214Z,37.73
2018-01-28T23:18:57.005Z,38.33
2018-01-28T23:21:28.055Z,35.93
2018-01-28T23:23:59.992Z,32.57
2018-01-28T23:26:32.714Z,35.00
2018-01-28T23:29:05.002Z,38.00
2018-01-28T23:31:38.172Z,34.33
2018-01-28T23:34:08.575Z,37.27
2018-01-28T23:36:40.920Z,39.57
2018-01-28T23:39:13.438Z,34.57
2018-01-28T23:41:50.907Z,36.43
2018-01-28T23:44:24.073Z,41.63
2018-01-28T23:46:57.322Z,41.53
2018-01-28T23:49:28.431Z,40.73
2018-01-28T23:52:00.663Z,35.67
2018-01-28T23:54:32.867Z,40.37
2018-01-28T23:57:05.913Z,34.97
2018-01-28T23:59:37.790Z,49.30
